sensor_id;sensor_type;location;lat;lon;timestamp;P1;durP1;ratioP1;P2;durP2;ratioP2
43184;SDS011;28803;52.308;19.096;2023-04-01T00:01:49;20.25;;;10.55;;
43184;SDS011;28803;52.308;19.096;2023-04-01T00:04:16;26.10;;;10.45;;
43184;SDS011;28803;52.308;19.096;2023-04-01T00:06:43;21.42;;;11.18;;
43184;SDS011;28803;52.308;19.096;2023-04-01T00:09:11;24.55;;;12.73;;
43184;SDS011;28803;52.308;19.096;2023-04-01T00:11:38;24.02;;;9.75;;
43184;SDS011;28803;52.308;19.096;2023-04-01T00:14:06;22.10;;;10.85;;
43184;SDS011;28803;52.308;19.096;2023-04-01T00:16:34;16.92;;;10.00;;
43184;SDS011;28803;52.308;19.096;2023-04-01T00:19:01;21.92;;;11.40;;
43184;SDS011;28803;52.308;19.096;2023-04-01T00:21:29;22.17;;;10.48;;
43184;SDS011;28803;52.308;19.096;2023-04-01T00:23:57;19.40;;;10.65;;
43184;SDS011;28803;52.308;19.096;2023-04-01T00:26:24;22.30;;;11.23;;
43184;SDS011;28803;52.308;19.096;2023-04-01T00:28:51;21.02;;;11.80;;
43184;SDS011;28803;52.308;19.096;2023-04-01T00:31:19;20.90;;;11.15;;
43184;SDS011;28803;52.308;19.096;2023-04-01T00:33:47;20.05;;;11.20;;
43184;SDS011;28803;52.308;19.096;2023-04-01T00:36:16;22.13;;;10.82;;
43184;SDS011;28803;52.308;19.096;2023-04-01T00:38:45;19.58;;;11.77;;
43184;SDS011;28803;52.308;19.096;2023-04-01T00:41:14;21.10;;;11.10;;
43184;SDS011;28803;52.308;19.096;2023-04-01T00:43:43;21.10;;;11.45;;
43184;SDS011;28803;52.308;19.096;2023-04-01T00:46:12;22.75;;;13.00;;
43184;SDS011;28803;52.308;19.096;2023-04-01T00:48:42;24.13;;;13.00;;
43184;SDS011;28803;52.308;19.096;2023-04-01T00:51:14;21.55;;;12.15;;
43184;SDS011;28803;52.308;19.096;2023-04-01T00:53:45;20.55;;;12.23;;
43184;SDS011;28803;52.308;19.096;2023-04-01T00:56:16;22.25;;;12.10;;
43184;SDS011;28803;52.308;19.096;2023-04-01T00:58:48;21.20;;;11.73;;
43184;SDS011;28803;52.308;19.096;2023-04-01T01:01:22;24.45;;;13.20;;
43184;SDS011;28803;52.308;19.096;2023-04-01T01:03:51;20.88;;;11.73;;
43184;SDS011;28803;52.308;19.096;2023-04-01T01:17:31;23.55;;;13.32;;
43184;SDS011;28803;52.308;19.096;2023-04-01T01:31:17;21.00;;;10.43;;
43184;SDS011;28803;52.308;19.096;2023-04-01T01:36:33;14.98;;;9.63;;
43184;SDS011;28803;52.308;19.096;2023-04-01T01:39:04;17.25;;;9.27;;
43184;SDS011;28803;52.308;19.096;2023-04-01T01:41:34;19.05;;;9.32;;
43184;SDS011;28803;52.308;19.096;2023-04-01T01:44:04;19.92;;;9.63;;
43184;SDS011;28803;52.308;19.096;2023-04-01T01:46:34;16.17;;;9.05;;
43184;SDS011;28803;52.308;19.096;2023-04-01T01:49:02;14.15;;;7.97;;
43184;SDS011;28803;52.308;19.096;2023-04-01T01:51:32;13.07;;;7.65;;
43184;SDS011;28803;52.308;19.096;2023-04-01T01:54:00;14.95;;;8.10;;
43184;SDS011;28803;52.308;19.096;2023-04-01T01:56:28;15.38;;;7.80;;
43184;SDS011;28803;52.308;19.096;2023-04-01T01:59:01;14.98;;;7.53;;
43184;SDS011;28803;52.308;19.096;2023-04-01T02:01:32;14.40;;;8.15;;
43184;SDS011;28803;52.308;19.096;2023-04-01T02:04:05;14.63;;;8.07;;
43184;SDS011;28803;52.308;19.096;2023-04-01T02:06:34;16.73;;;7.82;;
43184;SDS011;28803;52.308;19.096;2023-04-01T02:09:09;12.82;;;8.27;;
43184;SDS011;28803;52.308;19.096;2023-04-01T02:14:33;14.20;;;8.52;;
43184;SDS011;28803;52.308;19.096;2023-04-01T02:17:25;14.00;;;8.57;;
43184;SDS011;28803;52.308;19.096;2023-04-01T02:19:57;13.95;;;7.93;;
43184;SDS011;28803;52.308;19.096;2023-04-01T02:22:32;14.82;;;8.23;;
43184;SDS011;28803;52.308;19.096;2023-04-01T02:25:05;14.18;;;8.93;;
43184;SDS011;28803;52.308;19.096;2023-04-01T02:27:35;16.83;;;9.15;;
43184;SDS011;28803;52.308;19.096;2023-04-01T02:30:02;13.50;;;8.20;;
43184;SDS011;28803;52.308;19.096;2023-04-01T02:32:30;14.60;;;7.78;;
43184;SDS011;28803;52.308;19.096;2023-04-01T02:35:00;15.88;;;7.72;;
43184;SDS011;28803;52.308;19.096;2023-04-01T02:37:32;15.38;;;8.68;;
43184;SDS011;28803;52.308;19.096;2023-04-01T02:40:02;15.20;;;8.48;;
43184;SDS011;28803;52.308;19.096;2023-04-01T02:42:33;13.52;;;7.97;;
43184;SDS011;28803;52.308;19.096;2023-04-01T02:45:01;12.88;;;7.88;;
43184;SDS011;28803;52.308;19.096;2023-04-01T02:47:29;14.43;;;7.88;;
43184;SDS011;28803;52.308;19.096;2023-04-01T02:49:56;14.82;;;7.35;;
43184;SDS011;28803;52.308;19.096;2023-04-01T02:52:25;14.05;;;7.78;;
43184;SDS011;28803;52.308;19.096;2023-04-01T02:54:54;14.18;;;7.95;;
43184;SDS011;28803;52.308;19.096;2023-04-01T02:57:22;13.90;;;7.40;;
43184;SDS011;28803;52.308;19.096;2023-04-01T02:59:50;13.20;;;6.55;;
43184;SDS011;28803;52.308;19.096;2023-04-01T03:02:18;10.90;;;6.72;;
43184;SDS011;28803;52.308;19.096;2023-04-01T03:04:45;10.48;;;6.07;;
43184;SDS011;28803;52.308;19.096;2023-04-01T03:07:12;11.48;;;6.50;;
43184;SDS011;28803;52.308;19.096;2023-04-01T03:09:39;12.68;;;7.18;;
43184;SDS011;28803;52.308;19.096;2023-04-01T03:12:07;12.27;;;6.95;;
43184;SDS011;28803;52.308;19.096;2023-04-01T03:14:34;11.98;;;6.55;;
43184;SDS011;28803;52.308;19.096;2023-04-01T03:17:01;12.40;;;7.65;;
43184;SDS011;28803;52.308;19.096;2023-04-01T03:19:29;16.27;;;9.10;;
43184;SDS011;28803;52.308;19.096;2023-04-01T03:21:56;15.48;;;8.85;;
43184;SDS011;28803;52.308;19.096;2023-04-01T03:24:23;15.05;;;8.60;;
43184;SDS011;28803;52.308;19.096;2023-04-01T03:26:50;14.23;;;8.43;;
43184;SDS011;28803;52.308;19.096;2023-04-01T03:29:17;13.95;;;8.70;;
43184;SDS011;28803;52.308;19.096;2023-04-01T03:31:44;15.80;;;9.18;;
43184;SDS011;28803;52.308;19.096;2023-04-01T03:34:12;16.35;;;9.13;;
43184;SDS011;28803;52.308;19.096;2023-04-01T03:36:39;13.77;;;7.82;;
43184;SDS011;28803;52.308;19.096;2023-04-01T03:39:06;15.70;;;9.00;;
43184;SDS011;28803;52.308;19.096;2023-04-01T03:41:36;14.43;;;8.45;;
43184;SDS011;28803;52.308;19.096;2023-04-01T03:44:04;13.27;;;8.23;;
43184;SDS011;28803;52.308;19.096;2023-04-01T03:46:32;11.95;;;7.47;;
43184;SDS011;28803;52.308;19.096;2023-04-01T03:49:00;17.60;;;8.40;;
43184;SDS011;28803;52.308;19.096;2023-04-01T03:51:27;13.93;;;8.18;;
43184;SDS011;28803;52.308;19.096;2023-04-01T03:53:55;13.07;;;8.20;;
43184;SDS011;28803;52.308;19.096;2023-04-01T03:56:22;16.95;;;9.60;;
43184;SDS011;28803;52.308;19.096;2023-04-01T03:58:49;14.93;;;8.18;;
43184;SDS011;28803;52.308;19.096;2023-04-01T04:01:20;14.10;;;7.95;;
43184;SDS011;28803;52.308;19.096;2023-04-01T04:03:48;17.05;;;8.82;;
43184;SDS011;28803;52.308;19.096;2023-04-01T04:06:17;12.25;;;7.47;;
43184;SDS011;28803;52.308;19.096;2023-04-01T04:08:45;12.30;;;7.03;;
43184;SDS011;28803;52.308;19.096;2023-04-01T04:11:12;13.15;;;7.70;;
43184;SDS011;28803;52.308;19.096;2023-04-01T04:13:40;11.73;;;7.10;;
43184;SDS011;28803;52.308;19.096;2023-04-01T04:16:08;12.77;;;7.22;;
43184;SDS011;28803;52.308;19.096;2023-04-01T04:18:37;12.68;;;6.82;;
43184;SDS011;28803;52.308;19.096;2023-04-01T04:21:04;23.88;;;14.35;;
43184;SDS011;28803;52.308;19.096;2023-04-01T04:23:32;106.20;;;54.50;;
43184;SDS011;28803;52.308;19.096;2023-04-01T04:26:01;154.10;;;61.88;;
43184;SDS011;28803;52.308;19.096;2023-04-01T04:28:33;99.72;;;48.67;;
43184;SDS011;28803;52.308;19.096;2023-04-01T04:31:01;96.85;;;51.88;;
43184;SDS011;28803;52.308;19.096;2023-04-01T04:33:29;71.72;;;36.17;;
43184;SDS011;28803;52.308;19.096;2023-04-01T04:35:57;31.55;;;16.58;;
43184;SDS011;28803;52.308;19.096;2023-04-01T04:38:25;31.20;;;15.43;;
43184;SDS011;28803;52.308;19.096;2023-04-01T04:40:53;38.13;;;21.05;;
43184;SDS011;28803;52.308;19.096;2023-04-01T04:43:21;31.10;;;18.30;;
43184;SDS011;28803;52.308;19.096;2023-04-01T04:45:48;22.92;;;13.52;;
43184;SDS011;28803;52.308;19.096;2023-04-01T04:48:15;21.23;;;12.50;;
43184;SDS011;28803;52.308;19.096;2023-04-01T04:50:46;20.27;;;11.13;;
43184;SDS011;28803;52.308;19.096;2023-04-01T04:53:16;21.38;;;10.27;;
43184;SDS011;28803;52.308;19.096;2023-04-01T04:55:45;18.20;;;10.02;;
43184;SDS011;28803;52.308;19.096;2023-04-01T04:58:13;15.27;;;8.60;;
43184;SDS011;28803;52.308;19.096;2023-04-01T05:00:41;15.25;;;7.78;;
43184;SDS011;28803;52.308;19.096;2023-04-01T05:03:09;15.38;;;8.90;;
43184;SDS011;28803;52.308;19.096;2023-04-01T05:05:37;17.88;;;9.40;;
43184;SDS011;28803;52.308;19.096;2023-04-01T05:08:05;14.55;;;7.55;;
43184;SDS011;28803;52.308;19.096;2023-04-01T05:10:32;16.25;;;8.68;;
43184;SDS011;28803;52.308;19.096;2023-04-01T05:12:59;16.70;;;8.82;;
43184;SDS011;28803;52.308;19.096;2023-04-01T05:15:27;13.88;;;7.65;;
43184;SDS011;28803;52.308;19.096;2023-04-01T05:17:54;16.92;;;8.82;;
43184;SDS011;28803;52.308;19.096;2023-04-01T05:20:21;17.75;;;9.43;;
43184;SDS011;28803;52.308;19.096;2023-04-01T05:22:48;16.23;;;8.57;;
43184;SDS011;28803;52.308;19.096;2023-04-01T05:25:15;16.55;;;8.98;;
43184;SDS011;28803;52.308;19.096;2023-04-01T05:27:43;16.60;;;9.05;;
43184;SDS011;28803;52.308;19.096;2023-04-01T05:30:10;18.48;;;9.63;;
43184;SDS011;28803;52.308;19.096;2023-04-01T05:32:38;17.73;;;9.48;;
43184;SDS011;28803;52.308;19.096;2023-04-01T05:35:06;19.95;;;8.85;;
43184;SDS011;28803;52.308;19.096;2023-04-01T05:37:34;26.08;;;13.75;;
43184;SDS011;28803;52.308;19.096;2023-04-01T05:40:02;93.82;;;49.15;;
43184;SDS011;28803;52.308;19.096;2023-04-01T05:42:31;35.85;;;22.95;;
43184;SDS011;28803;52.308;19.096;2023-04-01T05:44:58;23.65;;;12.52;;
43184;SDS011;28803;52.308;19.096;2023-04-01T05:47:25;19.52;;;11.13;;
43184;SDS011;28803;52.308;19.096;2023-04-01T05:49:52;21.38;;;12.20;;
43184;SDS011;28803;52.308;19.096;2023-04-01T05:52:20;23.52;;;13.18;;
43184;SDS011;28803;52.308;19.096;2023-04-01T05:54:47;25.90;;;16.02;;
43184;SDS011;28803;52.308;19.096;2023-04-01T05:57:14;23.48;;;13.32;;
43184;SDS011;28803;52.308;19.096;2023-04-01T05:59:41;21.25;;;12.48;;
43184;SDS011;28803;52.308;19.096;2023-04-01T06:02:09;18.40;;;10.80;;
43184;SDS011;28803;52.308;19.096;2023-04-01T06:04:37;21.55;;;10.23;;
43184;SDS011;28803;52.308;19.096;2023-04-01T06:07:13;17.15;;;9.82;;
43184;SDS011;28803;52.308;19.096;2023-04-01T06:09:42;18.77;;;10.25;;
43184;SDS011;28803;52.308;19.096;2023-04-01T06:12:17;18.90;;;10.57;;
43184;SDS011;28803;52.308;19.096;2023-04-01T06:25:38;16.50;;;7.63;;
43184;SDS011;28803;52.308;19.096;2023-04-01T06:28:26;14.90;;;8.00;;
43184;SDS011;28803;52.308;19.096;2023-04-01T06:31:16;14.85;;;8.15;;
43184;SDS011;28803;52.308;19.096;2023-04-01T06:40:05;12.57;;;6.85;;
43184;SDS011;28803;52.308;19.096;2023-04-01T06:51:48;10.40;;;6.05;;
43184;SDS011;28803;52.308;19.096;2023-04-01T06:56:44;9.85;;;6.13;;
43184;SDS011;28803;52.308;19.096;2023-04-01T06:59:19;10.77;;;5.32;;
43184;SDS011;28803;52.308;19.096;2023-04-01T07:01:55;7.93;;;3.75;;
43184;SDS011;28803;52.308;19.096;2023-04-01T07:10:19;5.63;;;3.22;;
43184;SDS011;28803;52.308;19.096;2023-04-01T07:12:53;4.32;;;2.85;;
43184;SDS011;28803;52.308;19.096;2023-04-01T07:15:28;5.43;;;3.58;;
43184;SDS011;28803;52.308;19.096;2023-04-01T07:18:09;5.78;;;2.92;;
43184;SDS011;28803;52.308;19.096;2023-04-01T07:20:42;5.05;;;3.33;;
43184;SDS011;28803;52.308;19.096;2023-04-01T07:23:44;8.68;;;3.50;;
43184;SDS011;28803;52.308;19.096;2023-04-01T07:26:42;5.82;;;2.80;;
43184;SDS011;28803;52.308;19.096;2023-04-01T07:29:04;4.40;;;2.50;;
43184;SDS011;28803;52.308;19.096;2023-04-01T07:31:49;4.68;;;2.83;;
43184;SDS011;28803;52.308;19.096;2023-04-01T07:40:48;4.10;;;1.98;;
43184;SDS011;28803;52.308;19.096;2023-04-01T07:49:07;3.60;;;1.92;;
43184;SDS011;28803;52.308;19.096;2023-04-01T07:55:04;4.07;;;2.20;;
43184;SDS011;28803;52.308;19.096;2023-04-01T08:06:24;6.25;;;4.20;;
43184;SDS011;28803;52.308;19.096;2023-04-01T08:09:28;5.95;;;3.75;;
43184;SDS011;28803;52.308;19.096;2023-04-01T08:12:44;3.88;;;2.00;;
43184;SDS011;28803;52.308;19.096;2023-04-01T08:15:04;3.08;;;2.10;;
43184;SDS011;28803;52.308;19.096;2023-04-01T08:21:03;7.15;;;3.45;;
43184;SDS011;28803;52.308;19.096;2023-04-01T08:23:31;7.35;;;3.90;;
43184;SDS011;28803;52.308;19.096;2023-04-01T08:26:08;8.25;;;4.18;;
43184;SDS011;28803;52.308;19.096;2023-04-01T08:28:38;7.22;;;3.78;;
43184;SDS011;28803;52.308;19.096;2023-04-01T08:31:13;5.53;;;3.25;;
43184;SDS011;28803;52.308;19.096;2023-04-01T08:33:40;9.07;;;4.47;;
43184;SDS011;28803;52.308;19.096;2023-04-01T08:38:49;7.40;;;3.80;;
43184;SDS011;28803;52.308;19.096;2023-04-01T08:47:24;6.60;;;3.50;;
43184;SDS011;28803;52.308;19.096;2023-04-01T08:58:42;8.63;;;4.80;;
43184;SDS011;28803;52.308;19.096;2023-04-01T09:21:04;6.45;;;4.32;;
43184;SDS011;28803;52.308;19.096;2023-04-01T09:27:11;9.07;;;4.85;;
43184;SDS011;28803;52.308;19.096;2023-04-01T09:48:39;5.25;;;2.47;;
43184;SDS011;28803;52.308;19.096;2023-04-01T09:54:06;7.15;;;3.22;;
43184;SDS011;28803;52.308;19.096;2023-04-01T09:59:56;6.45;;;2.78;;
43184;SDS011;28803;52.308;19.096;2023-04-01T10:02:43;6.68;;;3.08;;
43184;SDS011;28803;52.308;19.096;2023-04-01T10:14:01;6.25;;;3.58;;
43184;SDS011;28803;52.308;19.096;2023-04-01T10:22:28;5.47;;;3.70;;
43184;SDS011;28803;52.308;19.096;2023-04-01T10:28:17;5.40;;;3.10;;
43184;SDS011;28803;52.308;19.096;2023-04-01T10:36:16;11.13;;;5.82;;
43184;SDS011;28803;52.308;19.096;2023-04-01T10:42:27;11.18;;;5.90;;
43184;SDS011;28803;52.308;19.096;2023-04-01T11:19:50;21.25;;;9.48;;
43184;SDS011;28803;52.308;19.096;2023-04-01T11:25:56;18.20;;;8.52;;
43184;SDS011;28803;52.308;19.096;2023-04-01T11:31:11;18.85;;;8.20;;
43184;SDS011;28803;52.308;19.096;2023-04-01T11:33:46;17.85;;;8.98;;
43184;SDS011;28803;52.308;19.096;2023-04-01T11:39:11;14.00;;;6.97;;
43184;SDS011;28803;52.308;19.096;2023-04-01T12:02:05;13.13;;;6.68;;
43184;SDS011;28803;52.308;19.096;2023-04-01T12:07:32;15.32;;;7.93;;
43184;SDS011;28803;52.308;19.096;2023-04-01T12:10:33;23.60;;;10.50;;
43184;SDS011;28803;52.308;19.096;2023-04-01T12:16:29;26.70;;;11.18;;
43184;SDS011;28803;52.308;19.096;2023-04-01T12:19:43;16.88;;;9.07;;
43184;SDS011;28803;52.308;19.096;2023-04-01T12:22:27;15.15;;;8.57;;
43184;SDS011;28803;52.308;19.096;2023-04-01T12:25:28;18.38;;;7.97;;
43184;SDS011;28803;52.308;19.096;2023-04-01T12:41:54;18.80;;;9.65;;
43184;SDS011;28803;52.308;19.096;2023-04-01T12:52:42;23.85;;;11.90;;
43184;SDS011;28803;52.308;19.096;2023-04-01T13:01:19;18.05;;;10.10;;
43184;SDS011;28803;52.308;19.096;2023-04-01T13:04:12;24.90;;;12.80;;
43184;SDS011;28803;52.308;19.096;2023-04-01T13:12:55;20.10;;;10.43;;
43184;SDS011;28803;52.308;19.096;2023-04-01T13:18:21;17.90;;;10.35;;
43184;SDS011;28803;52.308;19.096;2023-04-01T13:24:02;23.35;;;10.98;;
43184;SDS011;28803;52.308;19.096;2023-04-01T13:29:32;17.58;;;10.02;;
43184;SDS011;28803;52.308;19.096;2023-04-01T13:43:26;13.82;;;7.40;;
43184;SDS011;28803;52.308;19.096;2023-04-01T13:57:00;15.73;;;9.70;;
43184;SDS011;28803;52.308;19.096;2023-04-01T14:08:17;17.08;;;8.68;;
43184;SDS011;28803;52.308;19.096;2023-04-01T14:13:30;23.00;;;12.10;;
43184;SDS011;28803;52.308;19.096;2023-04-01T14:25:29;15.32;;;9.23;;
43184;SDS011;28803;52.308;19.096;2023-04-01T14:43:10;16.58;;;9.40;;
43184;SDS011;28803;52.308;19.096;2023-04-01T14:49:23;18.10;;;10.65;;
43184;SDS011;28803;52.308;19.096;2023-04-01T14:51:56;22.77;;;10.52;;
43184;SDS011;28803;52.308;19.096;2023-04-01T14:54:37;17.92;;;9.60;;
43184;SDS011;28803;52.308;19.096;2023-04-01T15:00:01;21.98;;;10.15;;
43184;SDS011;28803;52.308;19.096;2023-04-01T15:08:10;28.17;;;12.23;;
43184;SDS011;28803;52.308;19.096;2023-04-01T15:11:15;21.45;;;10.82;;
43184;SDS011;28803;52.308;19.096;2023-04-01T15:14:01;17.67;;;9.48;;
43184;SDS011;28803;52.308;19.096;2023-04-01T15:19:38;16.60;;;7.47;;
43184;SDS011;28803;52.308;19.096;2023-04-01T15:28:17;14.25;;;6.95;;
43184;SDS011;28803;52.308;19.096;2023-04-01T15:36:16;14.50;;;6.60;;
43184;SDS011;28803;52.308;19.096;2023-04-01T15:42:04;17.50;;;8.77;;
43184;SDS011;28803;52.308;19.096;2023-04-01T15:49:54;19.50;;;9.70;;
43184;SDS011;28803;52.308;19.096;2023-04-01T16:09:28;15.18;;;7.85;;
43184;SDS011;28803;52.308;19.096;2023-04-01T16:14:59;13.73;;;7.85;;
43184;SDS011;28803;52.308;19.096;2023-04-01T16:20:24;10.60;;;5.18;;
43184;SDS011;28803;52.308;19.096;2023-04-01T16:23:57;14.60;;;6.15;;
43184;SDS011;28803;52.308;19.096;2023-04-01T16:28:56;12.13;;;6.28;;
43184;SDS011;28803;52.308;19.096;2023-04-01T16:37:00;9.63;;;5.68;;
43184;SDS011;28803;52.308;19.096;2023-04-01T16:39:41;8.55;;;5.25;;
43184;SDS011;28803;52.308;19.096;2023-04-01T16:45:53;8.73;;;5.85;;
43184;SDS011;28803;52.308;19.096;2023-04-01T16:51:22;9.02;;;5.05;;
43184;SDS011;28803;52.308;19.096;2023-04-01T16:54:04;8.05;;;5.18;;
43184;SDS011;28803;52.308;19.096;2023-04-01T16:56:55;7.30;;;4.53;;
43184;SDS011;28803;52.308;19.096;2023-04-01T16:59:34;8.02;;;5.85;;
43184;SDS011;28803;52.308;19.096;2023-04-01T17:02:16;8.02;;;4.93;;
43184;SDS011;28803;52.308;19.096;2023-04-01T17:13:18;13.73;;;8.38;;
43184;SDS011;28803;52.308;19.096;2023-04-01T17:41:25;10.73;;;6.68;;
43184;SDS011;28803;52.308;19.096;2023-04-01T17:52:37;10.45;;;6.60;;
43184;SDS011;28803;52.308;19.096;2023-04-01T17:57:52;12.55;;;6.22;;
43184;SDS011;28803;52.308;19.096;2023-04-01T18:00:32;12.27;;;6.65;;
43184;SDS011;28803;52.308;19.096;2023-04-01T18:14:03;11.52;;;6.60;;
43184;SDS011;28803;52.308;19.096;2023-04-01T18:16:55;13.20;;;7.18;;
43184;SDS011;28803;52.308;19.096;2023-04-01T18:20:20;13.98;;;7.20;;
43184;SDS011;28803;52.308;19.096;2023-04-01T18:22:44;14.30;;;6.65;;
43184;SDS011;28803;52.308;19.096;2023-04-01T18:27:52;13.23;;;7.28;;
43184;SDS011;28803;52.308;19.096;2023-04-01T18:30:30;12.88;;;7.40;;
43184;SDS011;28803;52.308;19.096;2023-04-01T18:35:53;17.83;;;7.90;;
43184;SDS011;28803;52.308;19.096;2023-04-01T18:39:00;18.13;;;8.20;;
43184;SDS011;28803;52.308;19.096;2023-04-01T18:47:03;17.35;;;9.13;;
43184;SDS011;28803;52.308;19.096;2023-04-01T18:52:51;16.15;;;7.55;;
43184;SDS011;28803;52.308;19.096;2023-04-01T18:55:42;12.75;;;7.15;;
43184;SDS011;28803;52.308;19.096;2023-04-01T18:58:23;14.80;;;7.80;;
43184;SDS011;28803;52.308;19.096;2023-04-01T19:01:10;15.48;;;7.30;;
43184;SDS011;28803;52.308;19.096;2023-04-01T19:06:35;16.05;;;7.63;;
43184;SDS011;28803;52.308;19.096;2023-04-01T19:09:28;18.30;;;8.13;;
43184;SDS011;28803;52.308;19.096;2023-04-01T19:12:08;17.17;;;8.13;;
43184;SDS011;28803;52.308;19.096;2023-04-01T19:15:02;15.40;;;8.85;;
43184;SDS011;28803;52.308;19.096;2023-04-01T19:17:45;16.25;;;8.93;;
43184;SDS011;28803;52.308;19.096;2023-04-01T19:20:22;17.33;;;9.52;;
43184;SDS011;28803;52.308;19.096;2023-04-01T19:25:59;28.17;;;13.98;;
43184;SDS011;28803;52.308;19.096;2023-04-01T19:37:28;11.93;;;7.07;;
43184;SDS011;28803;52.308;19.096;2023-04-01T19:45:51;17.38;;;8.25;;
43184;SDS011;28803;52.308;19.096;2023-04-01T19:48:42;19.45;;;8.52;;
43184;SDS011;28803;52.308;19.096;2023-04-01T19:51:36;14.95;;;7.45;;
43184;SDS011;28803;52.308;19.096;2023-04-01T20:04:43;14.65;;;8.25;;
43184;SDS011;28803;52.308;19.096;2023-04-01T20:07:33;15.73;;;8.83;;
43184;SDS011;28803;52.308;19.096;2023-04-01T20:13:11;19.90;;;9.07;;
43184;SDS011;28803;52.308;19.096;2023-04-01T20:15:58;12.73;;;7.55;;
43184;SDS011;28803;52.308;19.096;2023-04-01T20:21:35;17.65;;;8.52;;
43184;SDS011;28803;52.308;19.096;2023-04-01T20:27:03;17.10;;;8.27;;
43184;SDS011;28803;52.308;19.096;2023-04-01T20:52:16;17.00;;;7.55;;
43184;SDS011;28803;52.308;19.096;2023-04-01T20:55:17;10.02;;;5.95;;
43184;SDS011;28803;52.308;19.096;2023-04-01T21:11:41;13.18;;;6.18;;
43184;SDS011;28803;52.308;19.096;2023-04-01T21:17:15;10.65;;;6.13;;
43184;SDS011;28803;52.308;19.096;2023-04-01T21:28:27;13.32;;;7.07;;
43184;SDS011;28803;52.308;19.096;2023-04-01T21:42:04;11.05;;;6.72;;
43184;SDS011;28803;52.308;19.096;2023-04-01T21:47:38;10.23;;;6.90;;
43184;SDS011;28803;52.308;19.096;2023-04-01T22:07:19;8.98;;;6.22;;
43184;SDS011;28803;52.308;19.096;2023-04-01T22:10:10;9.00;;;5.95;;
43184;SDS011;28803;52.308;19.096;2023-04-01T22:12:54;7.47;;;5.28;;
43184;SDS011;28803;52.308;19.096;2023-04-01T22:18:09;11.65;;;6.80;;
43184;SDS011;28803;52.308;19.096;2023-04-01T22:21:05;11.50;;;6.50;;
43184;SDS011;28803;52.308;19.096;2023-04-01T22:29:05;8.23;;;5.25;;
43184;SDS011;28803;52.308;19.096;2023-04-01T22:31:42;9.50;;;6.28;;
43184;SDS011;28803;52.308;19.096;2023-04-01T22:37:00;9.73;;;5.78;;
43184;SDS011;28803;52.308;19.096;2023-04-01T22:40:00;10.48;;;5.40;;
43184;SDS011;28803;52.308;19.096;2023-04-01T22:42:43;10.77;;;4.88;;
43184;SDS011;28803;52.308;19.096;2023-04-01T22:45:29;9.43;;;4.80;;
43184;SDS011;28803;52.308;19.096;2023-04-01T22:56:46;8.40;;;4.55;;
43184;SDS011;28803;52.308;19.096;2023-04-01T23:01:53;8.73;;;5.32;;
43184;SDS011;28803;52.308;19.096;2023-04-01T23:04:24;8.07;;;5.40;;
43184;SDS011;28803;52.308;19.096;2023-04-01T23:06:59;7.80;;;4.88;;
43184;SDS011;28803;52.308;19.096;2023-04-01T23:09:31;11.23;;;5.80;;
43184;SDS011;28803;52.308;19.096;2023-04-01T23:12:02;12.07;;;5.05;;
43184;SDS011;28803;52.308;19.096;2023-04-01T23:14:46;6.63;;;5.10;;
43184;SDS011;28803;52.308;19.096;2023-04-01T23:20:07;10.13;;;6.03;;
43184;SDS011;28803;52.308;19.096;2023-04-01T23:28:23;7.68;;;4.70;;
43184;SDS011;28803;52.308;19.096;2023-04-01T23:30:59;7.00;;;5.10;;
43184;SDS011;28803;52.308;19.096;2023-04-01T23:33:28;6.63;;;5.00;;
43184;SDS011;28803;52.308;19.096;2023-04-01T23:35:57;7.55;;;5.20;;
43184;SDS011;28803;52.308;19.096;2023-04-01T23:38:46;8.88;;;5.22;;
43184;SDS011;28803;52.308;19.096;2023-04-01T23:41:20;8.60;;;4.88;;
43184;SDS011;28803;52.308;19.096;2023-04-01T23:43:52;8.60;;;4.97;;
43184;SDS011;28803;52.308;19.096;2023-04-01T23:46:42;6.65;;;4.72;;
43184;SDS011;28803;52.308;19.096;2023-04-01T23:49:14;10.43;;;6.18;;
43184;SDS011;28803;52.308;19.096;2023-04-01T23:52:02;6.63;;;4.28;;
43184;SDS011;28803;52.308;19.096;2023-04-01T23:54:55;7.28;;;4.80;;
43184;SDS011;28803;52.308;19.096;2023-04-01T23:57:30;10.98;;;4.88;;
